createdAt,value
2024-01-06T00:00:19.392Z,21.03
2024-01-06T00:02:46.529Z,20.77
2024-01-06T00:05:13.688Z,19.40
2024-01-06T00:07:40.701Z,19.00
2024-01-06T00:10:08.492Z,18.97
2024-01-06T00:12:35.587Z,20.93
2024-01-06T00:15:03.125Z,20.93
2024-01-06T00:17:30.153Z,19.80
2024-01-06T00:19:57.354Z,23.63
2024-01-06T00:22:24.550Z,19.83
2024-01-06T00:24:51.595Z,20.67
2024-01-06T00:27:18.641Z,19.60
2024-01-06T00:29:45.600Z,20.73
2024-01-06T00:32:12.863Z,20.53
2024-01-06T00:34:39.938Z,19.33
2024-01-06T00:37:07.010Z,20.97
2024-01-06T00:39:34.080Z,20.63
2024-01-06T00:42:01.103Z,20.60
2024-01-06T00:44:28.169Z,22.80
2024-01-06T00:46:58.105Z,21.17
2024-01-06T00:49:25.233Z,21.07
2024-01-06T00:51:53.105Z,21.53
2024-01-06T00:54:20.032Z,23.07
2024-01-06T00:56:47.084Z,22.20
2024-01-06T00:59:14.076Z,23.40
2024-01-06T01:01:41.578Z,21.67
2024-01-06T01:04:08.568Z,21.40
2024-01-06T01:06:38.165Z,21.70
2024-01-06T01:09:05.546Z,23.07
2024-01-06T01:11:32.744Z,22.03
2024-01-06T01:14:02.049Z,19.40
2024-01-06T01:16:29.020Z,18.70
2024-01-06T01:18:56.064Z,19.03
2024-01-06T01:21:23.286Z,19.73
2024-01-06T01:23:50.200Z,19.27
2024-01-06T01:26:17.273Z,21.37
2024-01-06T01:28:44.268Z,20.17
2024-01-06T01:31:11.410Z,21.87
2024-01-06T01:33:38.640Z,19.77
2024-01-06T01:36:06.025Z,19.30
2024-01-06T01:38:33.120Z,21.40
2024-01-06T01:41:00.772Z,20.33
2024-01-06T01:43:29.973Z,19.97
2024-01-06T01:45:57.815Z,20.87
2024-01-06T01:48:26.667Z,19.50
2024-01-06T01:50:55.537Z,20.03
2024-01-06T01:53:25.300Z,23.47
2024-01-06T01:55:53.078Z,21.47
2024-01-06T01:58:20.266Z,21.17
2024-01-06T02:00:47.643Z,23.70
2024-01-06T02:03:39.538Z,27.87
2024-01-06T02:06:06.969Z,27.10
2024-01-06T02:08:34.008Z,29.20
2024-01-06T02:11:01.004Z,24.67
2024-01-06T02:13:35.393Z,24.20
2024-01-06T02:16:06.101Z,25.07
2024-01-06T02:18:34.167Z,25.03
2024-01-06T02:21:02.953Z,27.63
2024-01-06T02:23:30.728Z,23.57
2024-01-06T02:25:58.300Z,25.43
2024-01-06T02:28:25.235Z,25.10
2024-01-06T02:30:56.547Z,25.80
2024-01-06T02:33:25.612Z,26.90
2024-01-06T02:35:52.847Z,25.37
2024-01-06T02:38:19.769Z,26.70
2024-01-06T02:40:46.753Z,25.80
2024-01-06T02:43:13.825Z,20.77
2024-01-06T02:45:40.812Z,24.07
2024-01-06T02:48:08.291Z,22.60
2024-01-06T02:50:35.586Z,25.33
2024-01-06T02:53:02.462Z,24.00
2024-01-06T02:55:29.372Z,22.77
2024-01-06T02:57:56.395Z,22.93
2024-01-06T03:00:23.421Z,24.37
2024-01-06T03:03:43.637Z,24.57
2024-01-06T03:06:10.914Z,23.00
2024-01-06T03:08:37.957Z,24.53
2024-01-06T03:11:06.554Z,23.57
2024-01-06T03:13:33.582Z,23.83
2024-01-06T03:19:48.896Z,24.70
2024-01-06T03:22:16.113Z,25.43
2024-01-06T03:24:43.086Z,25.43
2024-01-06T03:27:10.285Z,24.30
2024-01-06T03:29:37.265Z,25.50
2024-01-06T03:32:04.448Z,23.90
2024-01-06T03:34:31.591Z,22.77
2024-01-06T03:36:58.767Z,21.90
2024-01-06T03:39:25.879Z,23.50
2024-01-06T03:41:52.795Z,25.73
2024-01-06T03:44:19.835Z,24.27
2024-01-06T03:46:46.779Z,23.43
2024-01-06T03:49:13.804Z,26.17
2024-01-06T03:51:41.040Z,25.40
2024-01-06T03:54:08.238Z,22.93
2024-01-06T03:56:35.283Z,23.70
2024-01-06T03:59:02.196Z,24.03
2024-01-06T04:01:30.085Z,23.67
2024-01-06T04:03:57.199Z,23.77
2024-01-06T04:06:24.182Z,24.03
2024-01-06T04:08:51.588Z,25.00
2024-01-06T04:11:21.261Z,25.53
2024-01-06T04:13:48.427Z,25.70
2024-01-06T04:16:15.490Z,25.50
2024-01-06T04:18:42.547Z,27.53
2024-01-06T04:21:10.136Z,27.27
2024-01-06T04:23:37.138Z,25.67
2024-01-06T04:26:05.962Z,27.47
2024-01-06T04:28:32.904Z,25.47
2024-01-06T04:31:00.007Z,26.03
2024-01-06T04:33:27.105Z,25.10
2024-01-06T04:35:54.338Z,26.50
2024-01-06T04:38:21.337Z,26.67
2024-01-06T04:40:48.360Z,27.43
2024-01-06T04:43:15.339Z,25.63
2024-01-06T04:45:42.385Z,27.13
2024-01-06T04:48:09.630Z,25.27
2024-01-06T04:50:36.853Z,24.93
2024-01-06T04:53:05.052Z,28.27
2024-01-06T04:55:32.130Z,24.93
2024-01-06T04:57:59.052Z,26.03
2024-01-06T05:00:26.890Z,26.30
2024-01-06T05:02:53.901Z,27.20
2024-01-06T05:05:21.066Z,25.37
2024-01-06T05:07:48.052Z,27.33
2024-01-06T05:10:15.015Z,25.17
2024-01-06T05:12:42.080Z,27.70
2024-01-06T05:15:10.931Z,24.57
2024-01-06T05:17:38.200Z,25.30
2024-01-06T05:20:05.900Z,25.83
2024-01-06T05:22:32.838Z,26.20
2024-01-06T05:24:59.866Z,25.50
2024-01-06T05:27:26.859Z,24.63
2024-01-06T05:29:53.876Z,25.70
2024-01-06T05:32:21.487Z,25.83
2024-01-06T05:34:50.108Z,25.53
2024-01-06T05:37:17.262Z,26.33
2024-01-06T05:39:44.211Z,25.10
2024-01-06T05:42:18.254Z,26.93
2024-01-06T05:44:45.191Z,27.70
2024-01-06T05:47:12.349Z,26.60
2024-01-06T05:49:44.836Z,24.67
2024-01-06T05:52:11.927Z,25.43
2024-01-06T05:54:43.640Z,26.73
2024-01-06T05:57:10.712Z,26.10
2024-01-06T05:59:37.641Z,26.03
2024-01-06T06:02:04.980Z,26.03
2024-01-06T06:04:32.075Z,27.90
2024-01-06T06:07:02.270Z,26.40
2024-01-06T06:09:30.171Z,27.20
2024-01-06T06:11:57.282Z,25.90
2024-01-06T06:14:27.332Z,28.37
2024-01-06T06:16:55.987Z,27.27
2024-01-06T06:19:22.968Z,25.93
2024-01-06T06:21:50.164Z,28.80
2024-01-06T06:24:17.111Z,29.73
2024-01-06T06:26:44.141Z,27.20
2024-01-06T06:29:11.088Z,30.83
2024-01-06T06:31:38.240Z,33.50
2024-01-06T06:34:08.420Z,27.43
2024-01-06T06:36:36.790Z,26.43
2024-01-06T06:39:05.383Z,29.43
2024-01-06T06:41:32.437Z,30.47
2024-01-06T06:43:59.445Z,26.13
2024-01-06T06:46:26.522Z,27.60
2024-01-06T06:48:53.486Z,30.37
2024-01-06T06:51:23.081Z,26.60
2024-01-06T06:53:53.409Z,25.83
2024-01-06T06:56:20.380Z,27.33
2024-01-06T06:58:47.442Z,28.87
2024-01-06T07:01:17.622Z,26.40
2024-01-06T07:03:44.896Z,26.30
2024-01-06T07:06:16.680Z,26.17
2024-01-06T07:08:43.862Z,29.15
2024-01-06T07:11:12.764Z,27.20
2024-01-06T07:13:40.498Z,26.47
2024-01-06T07:16:15.375Z,26.80
2024-01-06T07:18:46.675Z,27.37
2024-01-06T07:21:15.354Z,29.00
2024-01-06T07:23:43.793Z,28.30
2024-01-06T07:26:10.820Z,27.43
2024-01-06T07:28:37.734Z,26.23
2024-01-06T07:31:06.535Z,28.47
2024-01-06T07:33:33.926Z,26.40
2024-01-06T07:36:02.080Z,26.27
2024-01-06T07:38:29.362Z,28.50
2024-01-06T07:40:58.976Z,26.13
2024-01-06T07:43:25.949Z,26.00
2024-01-06T07:45:53.950Z,26.97
2024-01-06T07:48:21.127Z,25.47
2024-01-06T07:50:48.239Z,26.70
2024-01-06T07:53:15.706Z,26.83
2024-01-06T07:55:42.630Z,28.37
2024-01-06T07:58:09.835Z,25.97
2024-01-06T08:00:37.138Z,26.13
2024-01-06T08:03:07.213Z,26.77
2024-01-06T08:05:34.357Z,25.30
2024-01-06T08:08:05.285Z,25.80
2024-01-06T08:10:32.598Z,26.23
2024-01-06T08:13:00.265Z,25.00
2024-01-06T08:15:27.675Z,24.03
2024-01-06T08:17:54.727Z,24.60
2024-01-06T08:20:21.938Z,23.83
2024-01-06T08:22:49.031Z,23.23
2024-01-06T08:25:18.474Z,21.83
2024-01-06T08:27:45.814Z,21.90
2024-01-06T08:30:13.649Z,21.93
2024-01-06T08:32:40.769Z,21.43
2024-01-06T08:35:08.366Z,22.50
2024-01-06T08:37:35.273Z,20.70
2024-01-06T08:40:02.442Z,20.33
2024-01-06T08:42:29.753Z,19.73
2024-01-06T08:44:56.857Z,21.17
2024-01-06T08:47:23.806Z,20.87
2024-01-06T08:49:50.868Z,21.60
2024-01-06T08:52:20.608Z,21.80
2024-01-06T08:54:47.604Z,20.07
2024-01-06T08:57:14.648Z,20.27
2024-01-06T08:59:41.752Z,19.33
2024-01-06T09:02:08.884Z,19.53
2024-01-06T09:04:35.938Z,19.00
2024-01-06T09:07:03.041Z,18.97
2024-01-06T09:09:31.348Z,23.57
2024-01-06T09:11:58.597Z,20.30
2024-01-06T09:14:25.675Z,19.00
2024-01-06T09:16:52.581Z,17.47
2024-01-06T09:19:19.720Z,18.97
2024-01-06T09:21:46.779Z,17.07
2024-01-06T09:24:13.868Z,16.13
2024-01-06T09:26:40.867Z,15.80
2024-01-06T09:29:08.127Z,15.87
2024-01-06T09:31:35.425Z,14.90
2024-01-06T09:34:05.428Z,14.30
2024-01-06T09:36:33.268Z,14.50
2024-01-06T09:39:00.294Z,15.30
2024-01-06T09:41:27.384Z,15.27
2024-01-06T09:43:54.478Z,16.93
2024-01-06T09:46:21.554Z,15.27
2024-01-06T09:48:51.862Z,15.43
2024-01-06T09:51:20.808Z,13.30
2024-01-06T09:54:10.934Z,12.70
2024-01-06T09:56:42.212Z,13.97
2024-01-06T09:59:09.148Z,12.43
2024-01-06T10:01:36.162Z,12.07
2024-01-06T10:04:03.462Z,12.77
2024-01-06T10:06:30.654Z,12.67
2024-01-06T10:08:57.620Z,12.83
2024-01-06T10:11:24.673Z,12.20
2024-01-06T10:13:52.751Z,13.10
2024-01-06T10:16:20.730Z,11.07
2024-01-06T10:18:52.677Z,11.40
2024-01-06T10:21:23.186Z,11.10
2024-01-06T10:23:50.360Z,10.80
2024-01-06T10:26:18.983Z,11.03
2024-01-06T10:28:46.052Z,11.60
2024-01-06T10:31:13.589Z,11.87
2024-01-06T10:33:41.082Z,12.00
2024-01-06T10:36:10.016Z,12.53
2024-01-06T10:38:37.298Z,13.03
2024-01-06T10:41:09.039Z,12.80
2024-01-06T10:43:42.466Z,14.63
2024-01-06T10:46:13.111Z,17.37
2024-01-06T10:48:44.631Z,16.67
2024-01-06T10:51:13.242Z,15.97
2024-01-06T10:53:42.213Z,15.73
2024-01-06T10:56:11.630Z,22.70
2024-01-06T10:58:44.194Z,17.40
2024-01-06T11:01:13.033Z,16.60
2024-01-06T11:03:41.455Z,16.23
2024-01-06T11:06:12.187Z,16.93
2024-01-06T11:09:01.607Z,15.87
2024-01-06T11:11:29.093Z,14.00
2024-01-06T11:14:25.977Z,16.70
2024-01-06T11:16:54.096Z,19.33
2024-01-06T11:19:38.238Z,22.90
2024-01-06T11:22:25.836Z,20.40
2024-01-06T11:24:54.971Z,20.80
2024-01-06T11:27:24.596Z,21.10
2024-01-06T11:29:55.653Z,18.77
2024-01-06T11:32:31.075Z,20.53
2024-01-06T11:35:07.383Z,24.13
2024-01-06T11:37:52.316Z,20.47
2024-01-06T11:40:22.349Z,18.00
2024-01-06T11:42:57.522Z,17.83
2024-01-06T11:45:26.792Z,15.73
2024-01-06T11:48:01.381Z,13.90
2024-01-06T11:50:29.169Z,15.50
2024-01-06T11:52:56.565Z,14.77
2024-01-06T11:55:24.247Z,13.87
2024-01-06T11:57:52.501Z,13.73
2024-01-06T12:00:19.888Z,14.57
2024-01-06T12:02:46.927Z,14.90
2024-01-06T12:05:19.098Z,13.93
2024-01-06T12:08:08.996Z,14.87
2024-01-06T12:10:37.033Z,14.77
2024-01-06T12:13:12.249Z,14.37
2024-01-06T12:15:40.956Z,13.30
2024-01-06T12:18:08.768Z,13.10
2024-01-06T12:20:35.949Z,15.17
2024-01-06T12:23:07.271Z,14.03
2024-01-06T12:25:40.189Z,13.90
2024-01-06T12:28:08.606Z,12.20
2024-01-06T12:30:36.908Z,11.83
2024-01-06T12:33:04.549Z,12.13
2024-01-06T12:35:31.728Z,13.13
2024-01-06T12:37:58.774Z,17.23
2024-01-06T12:40:25.853Z,16.10
2024-01-06T12:42:52.896Z,14.57
2024-01-06T12:45:20.028Z,14.30
2024-01-06T12:47:47.057Z,13.30
2024-01-06T12:50:15.868Z,12.37
2024-01-06T12:52:43.323Z,11.77
2024-01-06T12:55:10.472Z,11.10
2024-01-06T12:57:37.584Z,10.97
2024-01-06T13:00:07.266Z,11.53
2024-01-06T13:02:34.344Z,11.83
2024-01-06T13:05:01.384Z,11.40
2024-01-06T13:07:28.521Z,11.27
2024-01-06T13:09:56.951Z,11.70
2024-01-06T13:12:25.108Z,12.00
2024-01-06T13:14:53.684Z,12.83
2024-01-06T13:17:20.823Z,13.10
2024-01-06T13:19:47.825Z,12.30
2024-01-06T13:22:15.987Z,12.60
2024-01-06T13:24:43.026Z,12.43
2024-01-06T13:27:10.403Z,12.70
2024-01-06T13:29:37.394Z,12.97
2024-01-06T13:32:06.223Z,13.03
2024-01-06T13:34:33.418Z,12.97
2024-01-06T13:37:00.812Z,12.97
2024-01-06T13:39:27.873Z,13.40
2024-01-06T13:41:54.944Z,12.80
2024-01-06T13:44:23.795Z,13.10
2024-01-06T13:46:52.335Z,12.83
2024-01-06T13:49:20.022Z,13.40
2024-01-06T13:51:47.702Z,11.57
2024-01-06T13:54:17.317Z,13.30
2024-01-06T13:56:45.749Z,12.20
2024-01-06T13:59:12.705Z,12.10
2024-01-06T14:01:40.434Z,13.07
2024-01-06T14:04:08.234Z,14.37
2024-01-06T14:06:35.505Z,15.57
2024-01-06T14:09:02.940Z,14.10
2024-01-06T14:11:31.965Z,15.10
2024-01-06T14:13:59.681Z,14.13
2024-01-06T14:16:26.946Z,13.80
2024-01-06T14:18:54.251Z,14.60
2024-01-06T14:21:21.476Z,13.60
2024-01-06T14:23:50.780Z,13.13
2024-01-06T14:26:25.059Z,14.40
2024-01-06T14:28:52.219Z,21.53
2024-01-06T14:31:19.530Z,27.37
2024-01-06T14:33:46.931Z,28.03
2024-01-06T14:36:14.206Z,23.67
2024-01-06T14:38:41.309Z,17.90
2024-01-06T14:41:08.350Z,16.43
2024-01-06T14:43:35.264Z,16.47
2024-01-06T14:46:02.536Z,17.37
2024-01-06T14:48:29.747Z,15.90
2024-01-06T14:50:56.903Z,15.23
2024-01-06T14:53:23.924Z,15.17
2024-01-06T14:55:50.970Z,14.63
2024-01-06T14:58:17.927Z,14.13
2024-01-06T15:00:45.051Z,12.90
2024-01-06T15:03:12.318Z,14.23
2024-01-06T15:05:42.231Z,13.57
2024-01-06T15:08:09.208Z,12.80
2024-01-06T15:10:36.187Z,12.60
2024-01-06T15:13:04.804Z,13.63
2024-01-06T15:15:31.905Z,14.67
2024-01-06T15:17:59.392Z,14.23
2024-01-06T15:20:26.614Z,13.50
2024-01-06T15:22:53.814Z,12.50
2024-01-06T15:25:20.945Z,13.00
2024-01-06T15:27:48.637Z,27.07
2024-01-06T15:30:17.367Z,18.47
2024-01-06T15:32:44.746Z,14.47
2024-01-06T15:35:11.809Z,13.87
2024-01-06T15:37:38.945Z,13.13
2024-01-06T15:40:06.675Z,13.00
2024-01-06T15:42:33.940Z,12.33
2024-01-06T15:45:01.014Z,12.37
2024-01-06T15:47:28.003Z,12.67
2024-01-06T15:49:55.461Z,12.13
2024-01-06T15:52:22.971Z,12.83
2024-01-06T15:54:50.758Z,13.77
2024-01-06T15:57:17.871Z,13.43
2024-01-06T15:59:45.412Z,14.07
2024-01-06T16:02:12.545Z,13.53
2024-01-06T16:04:39.553Z,12.33
2024-01-06T16:07:07.184Z,11.60
2024-01-06T16:09:34.419Z,11.73
2024-01-06T16:12:01.431Z,11.97
2024-01-06T16:14:31.462Z,13.70
2024-01-06T16:17:02.729Z,12.47
2024-01-06T16:19:29.948Z,13.50
2024-01-06T16:22:07.648Z,13.63
2024-01-06T16:24:42.208Z,13.73
2024-01-06T16:27:09.260Z,14.20
2024-01-06T16:29:37.258Z,14.10
2024-01-06T16:32:04.551Z,16.73
2024-01-06T16:34:34.614Z,15.80
2024-01-06T16:37:04.402Z,17.43
2024-01-06T16:39:32.870Z,15.63
2024-01-06T16:42:00.619Z,15.83
2024-01-06T16:44:32.526Z,15.10
2024-01-06T16:47:01.027Z,14.43
2024-01-06T16:49:28.945Z,13.53
2024-01-06T16:51:56.663Z,11.87
2024-01-06T16:54:24.245Z,12.50
2024-01-06T16:56:51.694Z,11.03
2024-01-06T16:59:19.015Z,10.90
2024-01-06T17:01:46.095Z,12.30
2024-01-06T17:04:17.712Z,13.17
2024-01-06T17:06:44.891Z,13.87
2024-01-06T17:09:13.269Z,12.37
2024-01-06T17:11:40.397Z,11.70
2024-01-06T17:14:07.486Z,14.67
2024-01-06T17:16:35.089Z,14.47
2024-01-06T17:19:02.252Z,12.83
2024-01-06T17:21:29.311Z,11.97
2024-01-06T17:23:56.941Z,11.47
2024-01-06T17:26:23.861Z,10.57
2024-01-06T17:28:51.281Z,9.70
2024-01-06T17:31:18.492Z,9.97
2024-01-06T17:33:45.533Z,9.33
2024-01-06T17:36:12.637Z,9.63
2024-01-06T17:38:39.862Z,10.30
2024-01-06T17:41:08.309Z,10.77
2024-01-06T17:43:35.508Z,10.67
2024-01-06T17:46:02.605Z,9.20
2024-01-06T17:48:29.833Z,10.13
2024-01-06T17:50:56.881Z,11.57
2024-01-06T17:53:26.508Z,11.07
2024-01-06T17:55:53.485Z,11.33
2024-01-06T17:58:20.425Z,10.10
2024-01-06T18:00:47.430Z,8.90
2024-01-06T18:03:14.436Z,8.87
2024-01-06T18:05:41.909Z,10.00
2024-01-06T18:08:08.943Z,11.27
2024-01-06T18:10:36.099Z,10.53
2024-01-06T18:13:04.028Z,10.40
2024-01-06T18:15:34.034Z,10.90
2024-01-06T18:18:02.280Z,10.60
2024-01-06T18:20:29.293Z,11.07
2024-01-06T18:22:56.276Z,10.23
2024-01-06T18:25:26.419Z,10.50
2024-01-06T18:27:56.535Z,10.80
2024-01-06T18:30:23.583Z,11.13
2024-01-06T18:32:51.940Z,11.27
2024-01-06T18:35:18.898Z,12.50
2024-01-06T18:37:46.373Z,12.50
2024-01-06T18:40:13.479Z,15.27
2024-01-06T18:42:40.489Z,13.03
2024-01-06T18:45:07.735Z,12.60
2024-01-06T18:47:35.004Z,10.17
2024-01-06T18:50:02.633Z,9.90
2024-01-06T18:52:30.938Z,8.77
2024-01-06T18:54:57.927Z,8.67
2024-01-06T18:57:25.582Z,9.40
2024-01-06T18:59:52.968Z,8.50
2024-01-06T19:02:20.004Z,10.73
2024-01-06T19:04:50.199Z,10.50
2024-01-06T19:07:19.256Z,10.90
2024-01-06T19:09:46.407Z,9.30
2024-01-06T19:12:13.640Z,9.07
2024-01-06T19:14:40.872Z,9.40
2024-01-06T19:17:07.868Z,8.73
2024-01-06T19:19:39.983Z,9.93
2024-01-06T19:22:08.019Z,9.53
2024-01-06T19:24:42.798Z,9.27
2024-01-06T19:27:11.301Z,9.07
2024-01-06T19:29:43.789Z,10.63
2024-01-06T19:32:11.306Z,9.50
2024-01-06T19:34:39.138Z,9.40
2024-01-06T19:37:06.299Z,8.80
2024-01-06T19:39:33.379Z,8.40
2024-01-06T19:42:00.356Z,9.30
2024-01-06T19:44:27.342Z,9.77
2024-01-06T19:46:56.719Z,11.00
2024-01-06T19:49:23.810Z,10.50
2024-01-06T19:51:51.535Z,8.27
2024-01-06T19:54:18.825Z,7.30
2024-01-06T19:56:45.851Z,7.50
2024-01-06T19:59:13.491Z,7.20
2024-01-06T20:01:40.793Z,7.47
2024-01-06T20:04:08.054Z,9.40
2024-01-06T20:06:35.764Z,8.47
2024-01-06T20:09:04.186Z,7.63
2024-01-06T20:11:31.207Z,7.50
2024-01-06T20:13:59.047Z,9.13
2024-01-06T20:16:28.508Z,7.70
2024-01-06T20:18:55.492Z,10.10
2024-01-06T20:21:22.900Z,10.97
2024-01-06T20:23:49.930Z,10.20
2024-01-06T20:26:18.370Z,10.80
2024-01-06T20:28:50.531Z,12.63
2024-01-06T20:31:18.915Z,11.27
2024-01-06T20:33:46.956Z,11.40
2024-01-06T20:36:15.511Z,11.47
2024-01-06T20:38:42.927Z,11.77
2024-01-06T20:41:13.007Z,11.97
2024-01-06T20:43:40.362Z,11.07
2024-01-06T20:46:10.283Z,11.43
2024-01-06T20:48:37.888Z,10.70
2024-01-06T20:51:06.102Z,10.53
2024-01-06T20:53:35.276Z,10.53
2024-01-06T20:56:05.698Z,11.00
2024-01-06T20:58:32.702Z,10.33
2024-01-06T21:00:59.697Z,10.20
2024-01-06T21:03:26.816Z,11.47
2024-01-06T21:05:53.888Z,10.20
2024-01-06T21:08:20.846Z,10.30
2024-01-06T21:10:50.543Z,10.60
2024-01-06T21:13:17.530Z,12.50
2024-01-06T21:15:44.571Z,10.50
2024-01-06T21:18:12.177Z,11.13
2024-01-06T21:20:40.158Z,9.73
2024-01-06T21:23:07.186Z,9.90
2024-01-06T21:25:34.611Z,9.87
2024-01-06T21:28:02.125Z,9.70
2024-01-06T21:30:29.337Z,9.67
2024-01-06T21:33:01.902Z,9.60
2024-01-06T21:35:32.625Z,9.83
2024-01-06T21:38:00.235Z,10.17
2024-01-06T21:40:28.091Z,10.80
2024-01-06T21:42:55.823Z,9.40
2024-01-06T21:45:22.961Z,9.20
2024-01-06T21:47:54.236Z,9.17
2024-01-06T21:50:21.291Z,8.90
2024-01-06T21:52:48.379Z,8.60
2024-01-06T21:55:15.298Z,9.17
2024-01-06T21:57:42.298Z,8.37
2024-01-06T22:00:15.022Z,8.43
2024-01-06T22:02:43.872Z,9.23
2024-01-06T22:05:10.912Z,8.30
2024-01-06T22:07:38.766Z,8.30
2024-01-06T22:10:06.285Z,7.97
2024-01-06T22:12:33.562Z,7.70
2024-01-06T22:15:00.717Z,8.17
2024-01-06T22:17:27.766Z,8.43
2024-01-06T22:19:54.909Z,8.43
2024-01-06T22:22:21.918Z,8.47
2024-01-06T22:24:48.907Z,8.47
2024-01-06T22:27:16.586Z,8.10
2024-01-06T22:29:45.701Z,7.83
2024-01-06T22:32:13.781Z,8.27
2024-01-06T22:34:47.523Z,8.00
2024-01-06T22:37:15.111Z,10.13
2024-01-06T22:39:44.893Z,7.47
2024-01-06T22:42:12.485Z,8.67
2024-01-06T22:44:41.104Z,7.83
2024-01-06T22:47:08.090Z,8.20
2024-01-06T22:49:35.316Z,8.03
2024-01-06T22:52:03.819Z,8.30
2024-01-06T22:54:33.693Z,7.90
2024-01-06T22:57:01.903Z,8.13
2024-01-06T22:59:28.846Z,7.90
2024-01-06T23:01:55.909Z,7.60
2024-01-06T23:04:23.141Z,7.97
2024-01-06T23:06:50.501Z,7.40
2024-01-06T23:09:17.519Z,7.50
2024-01-06T23:11:45.105Z,8.17
2024-01-06T23:14:12.258Z,7.77
2024-01-06T23:16:39.392Z,7.60
2024-01-06T23:19:07.116Z,7.97
2024-01-06T23:21:34.110Z,7.20
2024-01-06T23:24:01.267Z,7.23
2024-01-06T23:26:28.278Z,7.83
2024-01-06T23:28:55.366Z,7.90
2024-01-06T23:31:22.721Z,8.80
2024-01-06T23:33:49.968Z,8.73
2024-01-06T23:36:17.158Z,7.97
2024-01-06T23:38:44.247Z,7.57
2024-01-06T23:41:11.173Z,6.80
2024-01-06T23:43:38.137Z,6.93
2024-01-06T23:46:05.215Z,7.03
2024-01-06T23:48:32.270Z,7.40
2024-01-06T23:50:59.409Z,6.90
2024-01-06T23:53:26.332Z,7.10
2024-01-06T23:55:53.351Z,6.77
2024-01-06T23:58:20.832Z,6.80
